Airfield :
LOGIN :

Register | Disclaimer

   EN    FR    IT 

 










Legend :    VFR   Marginal VFR   IFR   Intensive IFR   Very Intensive IFR
Visi :
Ceiling :
>= 8 km
>= 3000ft
5 to 8 km
1000 to 3000 ft
1500m to 5 km
500 to 1000 ft
800 to 1500m
200 to 500 ft
< 800m
< 200 ft
Symbols :   Thunderstorms  Fog  Heavy snow  Heavy precipitations  Wind > 20 kt
SIGMETs :     Misc.  Thunderstorms  Icing  Turbulence  Mountain Waves  Volcanic Ashes







- Airport Elevation : 755 ft
- IATA code : DRS


EDDC - Dresden Klotzsche

CURRENT METAR :
  • 250150Z 28004KT 220V320 3000 -RADZ BKN004 11/11 Q1019 RERA

EXPIRED METARs :
  • 250120Z 28004KT 240V340 3000 RADZ BKN004 11/11 Q1019
  • 250050Z 26004KT 230V300 4000 -RADZ BKN005 11/10 Q1019
  • 250020Z 26004KT 210V310 4000 -RADZ BKN004 11/10 Q1019
  • 242350Z 27004KT 240V320 4000 -RADZ BKN004 11/10 Q1019
  • 242320Z 27004KT 220V320 4000 -RADZ SCT005 BKN008 11/10 Q1019
  • 242250Z 28004KT 230V330 5000 -RADZ SCT006 BKN010 11/10 Q1019

TAF AMD TAF EDDC
Valid from the 25 at 01:00 until the 26 at 00:00 UTC


250120Z 2501/2524 28008KT 9999 BKN015
TEMPO 2501/2507 2000 -DZ BR BKN004
No reported NOTAMs for that airfield.



MET'MAP, your aeronautical weather chart ! - Copyright ORBIFLY December 2007 - Disclaimer

ORBIFLY MET'MAP TEAM :

Programming & Development : Alexandra Zaïnal
Concept & Development : Baudouin d'Aumeries
Co-Development & Prog : Marc-Olivier Méhu
Technical & hardware support : Manuel Goepfert

Contact : metmap@orbifly.com




SOURCES & CREDITS :

   NOAA